Time;durP1;ratioP1;P1;durP2;ratioP2;P2;SDS_P1;SDS_P2;PMS_P1;PMS_P2;Temp;Humidity;BMP_temperature;BMP_pressure;BME280_temperature;BME280_humidity;BME280_pressure;Samples;Min_cycle;Max_cycle;Signal;HPM_P1;HPM_P2
2023/07/29 00:04:34;;;;;;;10.30;7.55;;;13.90;1.00;;;;;;10561305;28;20490;-81
2023/07/29 00:09:55;;;;;;;9.85;7.55;;;13.90;60.20;;;;;;10540721;28;20214;-81
2023/07/29 00:15:17;;;;;;;9.60;7.75;;;13.80;1.00;;;;;;10560051;28;20240;-81
2023/07/29 00:20:38;;;;;;;11.27;7.47;;;13.80;39.50;;;;;;10530195;28;20242;-81
2023/07/29 00:26:00;;;;;;;10.82;7.93;;;13.80;1.00;;;;;;10560912;28;20185;-82
2023/07/29 00:31:21;;;;;;;9.82;7.63;;;13.70;1.00;;;;;;10557750;28;20244;-79
2023/07/29 00:36:44;;;;;;;13.02;9.15;;;13.60;1.00;;;;;;10556107;28;20248;-80
2023/07/29 00:42:06;;;;;;;8.73;7.18;;;13.70;99.90;;;;;;10555321;28;20199;-80
2023/07/29 00:47:27;;;;;;;10.93;7.03;;;13.80;99.90;;;;;;10558913;28;20200;-80
2023/07/29 00:52:50;;;;;;;7.82;6.60;;;13.70;99.90;;;;;;10557413;28;20222;-81
2023/07/29 00:58:11;;;;;;;10.95;7.68;;;13.60;1.00;;;;;;10559805;28;20267;-81
2023/07/29 01:03:32;;;;;;;9.38;7.15;;;13.40;99.90;;;;;;10514308;28;20438;-82
2023/07/29 01:09:04;;;;;;;10.93;7.25;;;13.30;1.00;;;;;;10516890;28;20434;-80
2023/07/29 01:14:36;;;;;;;14.93;7.97;;;13.40;1.00;;;;;;10545260;28;20198;-79
2023/07/29 01:20:07;;;;;;;13.80;8.77;;;13.40;1.00;;;;;;10549537;28;20206;-80
2023/07/29 01:25:28;;;;;;;9.98;7.90;;;13.50;99.90;;;;;;10505344;28;20196;-81
2023/07/29 01:30:57;;;;;;;13.63;8.43;;;13.60;99.90;;;;;;10542740;28;20561;-80
2023/07/29 01:36:23;;;;;;;10.68;7.47;;;13.50;99.90;;;;;;10542347;28;20240;-81
2023/07/29 01:41:45;;;;;;;13.20;7.85;;;13.50;1.00;;;;;;10530344;28;20210;-80
2023/07/29 01:47:05;;;;;;;10.65;8.18;;;13.50;1.00;;;;;;10565474;28;20195;-79
2023/07/29 01:52:28;;;;;;;13.25;8.82;;;13.60;1.00;;;;;;10550974;28;20493;-79
2023/07/29 01:57:51;;;;;;;7.72;6.38;;;13.90;1.00;;;;;;10555188;28;20236;-80
2023/07/29 02:03:12;;;;;;;9.77;6.65;;;14.00;1.00;;;;;;10515154;28;20205;-80
2023/07/29 02:08:34;;;;;;;7.32;5.22;;;14.00;1.00;;;;;;10523224;28;20384;-80
2023/07/29 02:13:55;;;;;;;5.85;5.03;;;14.00;1.00;;;;;;10508299;28;20200;-80
2023/07/29 02:19:17;;;;;;;5.22;4.30;;;14.10;1.00;;;;;;10553051;28;20232;-79
2023/07/29 02:24:38;;;;;;;7.75;4.75;;;14.20;1.00;;;;;;10522555;28;20276;-79
2023/07/29 02:29:59;;;;;;;5.22;4.38;;;14.20;1.00;;;;;;10509361;28;20193;-79
2023/07/29 02:35:21;;;;;;;4.85;4.40;;;14.10;1.00;;;;;;10546674;28;20242;-80
2023/07/29 02:40:42;;;;;;;8.60;6.40;;;14.10;1.00;;;;;;10558826;28;20283;-80
2023/07/29 02:46:04;;;;;;;11.68;7.13;;;14.00;1.00;;;;;;10563351;28;20192;-81
2023/07/29 02:51:25;;;;;;;9.55;7.38;;;13.90;1.00;;;;;;10557704;28;20399;-80
2023/07/29 02:56:47;;;;;;;8.18;5.95;;;13.90;1.00;;;;;;10548227;28;20233;-80
2023/07/29 03:02:08;;;;;;;6.38;5.57;;;13.90;1.00;;;;;;10543017;28;20200;-80
2023/07/29 03:07:30;;;;;;;6.20;5.53;;;13.90;1.00;;;;;;10534231;28;20199;-79
2023/07/29 03:12:53;;;;;;;6.65;5.63;;;13.80;1.00;;;;;;10521411;28;20279;-81
2023/07/29 03:18:15;;;;;;;5.47;4.93;;;13.80;1.00;;;;;;10529126;28;20306;-81
2023/07/29 03:23:37;;;;;;;7.55;5.35;;;13.70;1.00;;;;;;10511837;28;20283;-80
2023/07/29 03:28:59;;;;;;;6.70;5.85;;;13.80;1.00;;;;;;10519599;28;20192;-80
2023/07/29 03:34:20;;;;;;;9.70;7.30;;;13.70;1.00;;;;;;10516633;28;20227;-80
2023/07/29 03:39:41;;;;;;;8.80;7.32;;;13.70;1.00;;;;;;10530534;28;20262;-80
2023/07/29 03:45:03;;;;;;;11.05;8.75;;;13.70;1.00;;;;;;10519162;28;20191;-80
2023/07/29 03:50:26;;;;;;;8.20;6.53;;;13.60;1.00;;;;;;10507489;28;20216;-80
2023/07/29 03:55:47;;;;;;;6.80;6.15;;;13.60;1.00;;;;;;10545793;28;20268;-79
2023/07/29 04:01:08;;;;;;;6.68;5.88;;;13.60;1.00;;;;;;10555091;28;20206;-79
2023/07/29 04:06:30;;;;;;;6.05;5.45;;;13.60;1.00;;;;;;10560087;28;20188;-81
2023/07/29 04:11:52;;;;;;;6.55;5.47;;;13.60;1.00;;;;;;10540660;28;20248;-79
2023/07/29 04:17:13;;;;;;;7.95;5.70;;;13.60;1.00;;;;;;10559948;28;20223;-80
2023/07/29 04:22:35;;;;;;;7.25;5.93;;;13.70;1.00;;;;;;10540059;28;20265;-81
2023/07/29 04:27:57;;;;;;;8.10;6.53;;;13.80;1.00;;;;;;10544925;28;20204;-80
2023/07/29 04:33:19;;;;;;;10.27;6.95;;;13.90;1.00;;;;;;10541813;28;20232;-81
2023/07/29 04:38:40;;;;;;;11.93;9.85;;;13.90;1.00;;;;;;10545044;28;20226;-81
2023/07/29 04:44:02;;;;;;;11.57;9.77;;;13.90;1.00;;;;;;10540190;28;20203;-80
2023/07/29 04:49:23;;;;;;;9.13;7.13;;;13.90;1.00;;;;;;10559379;28;20399;-79
2023/07/29 04:54:44;;;;;;;5.68;4.55;;;13.90;1.00;;;;;;10528489;28;20360;-80
2023/07/29 05:00:06;;;;;;;3.95;3.63;;;14.00;1.00;;;;;;10541936;28;20547;-79
2023/07/29 05:05:29;;;;;;;3.80;3.50;;;14.00;1.00;;;;;;10503093;28;20300;-81
2023/07/29 05:10:52;;;;;;;4.43;4.03;;;14.10;1.00;;;;;;10516658;28;20212;-80
2023/07/29 05:16:13;;;;;;;4.22;3.75;;;14.10;1.00;;;;;;10548694;28;20455;-79
2023/07/29 05:21:37;;;;;;;4.38;3.72;;;14.20;1.00;;;;;;10550543;28;20393;-80
2023/07/29 05:26:58;;;;;;;4.55;3.80;;;14.30;1.00;;;;;;10551796;28;20201;-79
2023/07/29 05:32:19;;;;;;;4.45;3.47;;;14.50;1.00;;;;;;10546299;28;20217;-81
2023/07/29 05:37:41;;;;;;;5.07;4.57;;;14.80;1.00;;;;;;10551011;28;20244;-79
2023/07/29 05:43:03;;;;;;;6.20;5.43;;;15.00;1.00;;;;;;10557058;28;20443;-79
2023/07/29 05:48:24;;;;;;;5.00;4.40;;;15.30;1.00;;;;;;10524053;28;20374;-81
2023/07/29 05:53:45;;;;;;;8.63;6.18;;;15.50;1.00;;;;;;10539870;28;20265;-81
2023/07/29 05:59:07;;;;;;;12.55;7.95;;;15.80;99.90;;;;;;10503081;28;20292;-80
2023/07/29 06:04:28;;;;;;;8.45;5.85;;;16.10;99.90;;;;;;10517582;28;20202;-81
2023/07/29 06:09:49;;;;;;;5.22;4.10;;;16.50;1.00;;;;;;10522810;28;20195;-79
2023/07/29 06:15:12;;;;;;;5.13;4.07;;;16.70;1.00;;;;;;10521875;28;20213;-79
2023/07/29 06:20:33;;;;;;;5.53;4.13;;;17.00;1.00;;;;;;10508239;28;20197;-79
2023/07/29 06:25:55;;;;;;;4.15;3.10;;;17.30;99.90;;;;;;10514659;28;20271;-82
2023/07/29 06:31:16;;;;;;;3.45;3.00;;;17.50;1.00;;;;;;10558491;28;20202;-82
2023/07/29 06:36:37;;;;;;;4.20;3.17;;;17.80;1.00;;;;;;10544585;28;20245;-80
2023/07/29 06:41:59;;;;;;;3.95;3.55;;;18.30;99.90;;;;;;10520273;28;20199;-81
2023/07/29 06:47:20;;;;;;;3.10;2.50;;;18.80;1.00;;;;;;10521160;28;20199;-81
2023/07/29 06:52:41;;;;;;;3.10;2.42;;;19.60;1.00;;;;;;10520448;28;20225;-80
2023/07/29 06:58:03;;;;;;;2.05;1.90;;;;;;;;;;10550159;28;20218;-82
2023/07/29 07:03:24;;;;;;;4.90;2.97;;;21.10;1.00;;;;;;10562427;28;20239;-80
2023/07/29 07:08:46;;;;;;;2.95;2.70;;;21.70;1.00;;;;;;10550486;28;20203;-80
2023/07/29 07:14:07;;;;;;;2.42;2.22;;;22.00;1.00;;;;;;10506083;28;20214;-82
2023/07/29 07:19:28;;;;;;;2.40;2.20;;;22.50;1.00;;;;;;10532274;28;20245;-82
2023/07/29 07:24:50;;;;;;;2.70;2.40;;;23.00;1.00;;;;;;10547938;28;20273;-82
2023/07/29 07:30:11;;;;;;;5.25;4.00;;;23.10;1.00;;;;;;10542126;28;20202;-82
2023/07/29 07:35:33;;;;;;;4.07;2.70;;;23.70;1.00;;;;;;10559317;28;20521;-81
2023/07/29 07:40:57;;;;;;;2.95;2.10;;;24.20;1.00;;;;;;10556894;28;20387;-81
2023/07/29 07:46:18;;;;;;;2.78;2.17;;;24.50;1.00;;;;;;10546904;28;20204;-82
2023/07/29 07:51:39;;;;;;;2.35;2.08;;;24.80;99.90;;;;;;10517548;28;20211;-81
2023/07/29 07:57:01;;;;;;;4.70;2.47;;;25.30;99.90;;;;;;10536380;28;20513;-81
2023/07/29 08:02:22;;;;;;;2.45;1.70;;;25.70;99.90;;;;;;10550989;28;20207;-80
2023/07/29 08:07:44;;;;;;;2.58;1.98;;;25.80;99.90;;;;;;10518543;28;20194;-80
2023/07/29 08:13:05;;;;;;;2.80;2.08;;;25.80;99.90;;;;;;10535239;28;20195;-81
2023/07/29 08:18:27;;;;;;;2.40;2.20;;;;;;;;;;10541487;28;20562;-80
2023/07/29 08:23:49;;;;;;;2.65;2.20;;;26.50;99.90;;;;;;10515238;28;20198;-81
2023/07/29 08:29:10;;;;;;;3.58;2.78;;;26.80;99.90;;;;;;10539139;28;20285;-80
2023/07/29 08:34:31;;;;;;;3.78;2.25;;;26.70;99.90;;;;;;10541069;28;20225;-80
2023/07/29 08:39:53;;;;;;;3.53;1.83;;;26.70;99.90;;;;;;10559630;28;20237;-82
2023/07/29 08:45:17;;;;;;;11.52;3.78;;;27.30;99.90;;;;;;10549764;28;20552;-83
2023/07/29 08:50:39;;;;;;;8.25;5.20;;;27.60;1.00;;;;;;10506355;28;20197;-80
2023/07/29 08:56:01;;;;;;;4.18;2.67;;;27.60;99.90;;;;;;10568777;28;20230;-82
2023/07/29 09:01:23;;;;;;;2.33;2.10;;;27.40;99.90;;;;;;10563364;28;20202;-80
2023/07/29 09:06:47;;;;;;;2.58;2.38;;;27.60;99.90;;;;;;10511391;28;20197;-81
2023/07/29 09:12:08;;;;;;;4.50;2.28;;;;;;;;;;10510798;28;20211;-82
2023/07/29 09:17:33;;;;;;;2.80;2.50;;;28.30;99.90;;;;;;10542555;28;20218;-84
2023/07/29 09:22:57;;;;;;;3.15;2.60;;;28.40;1.00;;;;;;10547429;28;20500;-81
2023/07/29 09:28:19;;;;;;;3.17;2.50;;;28.80;99.90;;;;;;10566768;28;20273;-82
2023/07/29 09:33:41;;;;;;;4.13;2.50;;;;;;;;;;10560012;28;20226;-82
2023/07/29 09:39:03;;;;;;;2.75;2.38;;;29.40;1.00;;;;;;10509896;28;20223;-82
2023/07/29 09:44:24;;;;;;;3.25;2.50;;;29.60;77.00;;;;;;10546094;28;20202;-81
2023/07/29 09:49:46;;;;;;;5.13;2.75;;;29.30;99.90;;;;;;10551266;28;20198;-81
2023/07/29 09:55:08;;;;;;;2.78;2.22;;;29.70;99.90;;;;;;10546225;28;20217;-81
2023/07/29 10:00:30;;;;;;;2.50;2.30;;;29.90;1.00;;;;;;10547344;28;20227;-80
2023/07/29 10:05:52;;;;;;;2.15;1.92;;;29.90;1.00;;;;;;10523466;28;20187;-82
2023/07/29 10:11:13;;;;;;;3.25;2.40;;;29.60;1.00;;;;;;10555390;28;20217;-81
2023/07/29 10:16:36;;;;;;;4.20;2.40;;;30.20;1.00;;;;;;10531391;28;20297;-82
2023/07/29 10:22:03;;;;;;;2.80;2.30;;;30.30;99.90;;;;;;10544636;28;20251;-81
2023/07/29 10:27:25;;;;;;;6.55;1.90;;;29.00;99.90;;;;;;10563697;28;20287;-82
2023/07/29 10:32:48;;;;;;;3.60;2.65;;;28.20;99.90;;;;;;10559322;28;20198;-80
2023/07/29 10:38:10;;;;;;;5.18;2.00;;;27.60;99.90;;;;;;10528213;28;20205;-81
2023/07/29 10:43:33;;;;;;;1.77;1.58;;;27.70;99.90;;;;;;10533002;28;20258;-80
2023/07/29 10:48:56;;;;;;;1.83;1.63;;;28.20;99.90;;;;;;10548657;28;20225;-80
2023/07/29 10:54:18;;;;;;;2.33;2.13;;;28.60;99.90;;;;;;10513492;28;20234;-81
2023/07/29 10:59:39;;;;;;;1.75;1.60;;;28.80;99.90;;;;;;10520466;28;20445;-81
2023/07/29 11:05:16;;;;;;;2.55;2.03;;;28.20;99.90;;;;;;10516475;28;20226;-81
2023/07/29 11:10:44;;;;;;;3.28;1.88;;;27.40;99.90;;;;;;10506121;28;20234;-81
2023/07/29 11:16:06;;;;;;;5.28;1.83;;;28.00;99.90;;;;;;10524095;28;20186;-81
2023/07/29 11:21:28;;;;;;;2.78;2.05;;;27.90;99.90;;;;;;10556077;28;20222;-80
2023/07/29 11:26:49;;;;;;;4.07;1.83;;;26.90;99.90;;;;;;10546944;28;20230;-80
2023/07/29 11:32:11;;;;;;;3.60;2.08;;;26.70;99.90;;;;;;10559738;28;20198;-80
2023/07/29 11:37:33;;;;;;;1.63;1.52;;;26.30;99.90;;;;;;10529924;28;20234;-82
2023/07/29 11:42:55;;;;;;;1.80;1.55;;;26.10;99.90;;;;;;10506105;28;20202;-82
2023/07/29 11:48:16;;;;;;;3.97;1.48;;;25.90;99.90;;;;;;10560931;28;20222;-79
2023/07/29 11:53:37;;;;;;;4.18;1.98;;;25.80;99.90;;;;;;10558184;28;20202;-79
2023/07/29 11:58:59;;;;;;;3.67;1.92;;;25.70;99.90;;;;;;10560380;28;20190;-80
2023/07/29 12:04:21;;;;;;;2.65;2.13;;;25.50;99.90;;;;;;10555185;28;20247;-81
2023/07/29 12:09:43;;;;;;;4.60;1.65;;;25.80;99.90;;;;;;10559986;28;20241;-80
2023/07/29 12:15:05;;;;;;;2.30;1.88;;;26.00;99.90;;;;;;10530505;28;20229;-80
2023/07/29 12:20:29;;;;;;;3.97;1.70;;;27.10;99.90;;;;;;10560008;28;20190;-82
2023/07/29 12:25:51;;;;;;;3.95;1.95;;;28.00;99.90;;;;;;10514325;28;20585;-81
2023/07/29 12:31:12;;;;;;;5.53;2.75;;;28.20;99.90;;;;;;10521893;28;20206;-80
2023/07/29 12:37:03;;;;;;;2.47;2.10;;;28.40;99.90;;;;;;10519886;28;20237;-81
2023/07/29 12:42:26;;;;;;;2.70;1.77;;;28.10;99.90;;;;;;10529245;28;20222;-81
2023/07/29 12:47:47;;;;;;;2.38;1.60;;;28.00;99.90;;;;;;10544988;28;20218;-81
2023/07/29 12:53:12;;;;;;;2.63;1.65;;;27.60;99.90;;;;;;10542942;28;20431;-80
2023/07/29 12:58:34;;;;;;;1.88;1.77;;;27.90;99.90;;;;;;10517254;28;20386;-80
2023/07/29 13:03:56;;;;;;;4.05;1.40;;;28.00;99.90;;;;;;10524152;28;20246;-81
2023/07/29 13:09:17;;;;;;;2.50;1.60;;;27.90;99.90;;;;;;10558785;28;20289;-80
2023/07/29 13:14:38;;;;;;;1.80;1.40;;;27.90;99.90;;;;;;10553195;28;20390;-80
2023/07/29 13:20:00;;;;;;;2.70;1.50;;;28.10;99.90;;;;;;10544248;28;20269;-81
2023/07/29 13:25:21;;;;;;;1.55;1.45;;;27.80;99.90;;;;;;10552978;28;20202;-81
2023/07/29 13:30:43;;;;;;;1.70;1.60;;;27.50;99.90;;;;;;10544138;28;20222;-82
2023/07/29 13:36:05;;;;;;;4.03;1.92;;;27.40;99.90;;;;;;10517154;28;20300;-82
2023/07/29 13:41:26;;;;;;;1.63;1.50;;;27.30;99.90;;;;;;10523510;28;20191;-81
2023/07/29 13:46:47;;;;;;;3.20;2.35;;;27.20;99.90;;;;;;10551492;28;20223;-82
2023/07/29 13:52:09;;;;;;;5.85;3.28;;;27.00;99.90;;;;;;10565072;28;20229;-82
2023/07/29 13:57:30;;;;;;;6.07;4.28;;;27.10;99.90;;;;;;10548547;28;20222;-82
2023/07/29 14:02:51;;;;;;;2.28;1.70;;;26.90;99.90;;;;;;10548979;28;20284;-81
2023/07/29 14:08:13;;;;;;;1.63;1.52;;;26.80;99.90;;;;;;10550498;28;20226;-81
2023/07/29 14:13:34;;;;;;;3.42;2.30;;;26.90;99.90;;;;;;10545193;28;20194;-82
2023/07/29 14:18:55;;;;;;;2.03;1.85;;;26.70;99.90;;;;;;10564250;28;20272;-82
2023/07/29 14:24:17;;;;;;;2.90;1.80;;;26.70;99.90;;;;;;10539463;28;20203;-82
2023/07/29 14:29:38;;;;;;;2.30;2.03;;;26.60;99.90;;;;;;10507902;28;20540;-80
2023/07/29 14:35:03;;;;;;;2.75;2.10;;;26.50;99.90;;;;;;10540037;28;20218;-81
2023/07/29 14:40:25;;;;;;;1.88;1.63;;;26.70;99.90;;;;;;10508123;28;20396;-80
2023/07/29 14:45:46;;;;;;;1.42;1.33;;;26.80;99.90;;;;;;10514267;28;20203;-81
2023/07/29 14:51:08;;;;;;;1.90;1.48;;;27.00;99.90;;;;;;10520779;28;20428;-80
2023/07/29 14:56:29;;;;;;;4.80;1.98;;;27.10;99.90;;;;;;10548486;28;20199;-81
2023/07/29 15:01:50;;;;;;;3.97;3.03;;;27.20;99.90;;;;;;10524410;28;20387;-81
2023/07/29 15:07:12;;;;;;;2.80;2.20;;;26.90;99.90;;;;;;10507800;28;20420;-82
2023/07/29 15:12:33;;;;;;;6.10;2.78;;;26.90;99.90;;;;;;10528805;28;20270;-82
2023/07/29 15:17:56;;;;;;;3.35;2.47;;;26.70;99.90;;;;;;10539461;28;20485;-81
2023/07/29 15:23:18;;;;;;;2.00;1.80;;;26.50;99.90;;;;;;10542236;28;20405;-80
2023/07/29 15:28:39;;;;;;;2.08;1.58;;;26.20;99.90;;;;;;10542345;28;20232;-81
2023/07/29 15:34:01;;;;;;;2.88;1.92;;;26.00;99.90;;;;;;10539198;28;20231;-81
2023/07/29 15:39:22;;;;;;;3.63;2.20;;;25.90;99.90;;;;;;10504837;28;20203;-82
2023/07/29 15:44:43;;;;;;;2.92;2.65;;;25.70;99.90;;;;;;10532839;28;20194;-80
2023/07/29 15:50:05;;;;;;;1.88;1.73;;;25.70;99.90;;;;;;10546204;28;20222;-79
2023/07/29 15:55:27;;;;;;;4.03;2.03;;;25.60;99.90;;;;;;10555347;28;20205;-81
2023/07/29 16:00:48;;;;;;;3.13;1.65;;;25.50;99.90;;;;;;10560830;28;20206;-80
2023/07/29 16:06:09;;;;;;;1.90;1.70;;;25.30;99.90;;;;;;10505467;28;20206;-81
2023/07/29 16:11:31;;;;;;;1.50;1.35;;;25.10;99.90;;;;;;10503710;28;20227;-81
2023/07/29 16:16:52;;;;;;;2.15;1.63;;;25.00;99.90;;;;;;10530582;28;20198;-80
2023/07/29 16:22:14;;;;;;;2.08;1.60;;;24.90;99.90;;;;;;10556883;28;20195;-81
2023/07/29 16:27:35;;;;;;;3.50;2.45;;;24.70;1.00;;;;;;10529417;28;20536;-81
2023/07/29 16:32:57;;;;;;;2.65;2.22;;;24.30;1.00;;;;;;10555244;28;20562;-79
2023/07/29 16:38:18;;;;;;;2.78;2.00;;;24.30;1.00;;;;;;10517160;28;20205;-81
2023/07/29 16:43:39;;;;;;;7.93;2.55;;;24.10;28.40;;;;;;10530233;28;20210;-81
2023/07/29 16:49:01;;;;;;;3.45;2.63;;;23.90;1.00;;;;;;10544446;28;20263;-81
2023/07/29 16:54:23;;;;;;;3.35;2.80;;;23.40;48.50;;;;;;10555017;28;20225;-82
2023/07/29 16:59:44;;;;;;;3.95;2.88;;;22.90;99.90;;;;;;10559103;28;20198;-81
2023/07/29 17:05:06;;;;;;;5.88;3.22;;;;;;;;;;10540663;28;20209;-81
2023/07/29 17:10:27;;;;;;;3.78;3.17;;;22.30;1.00;;;;;;10530554;28;20409;-80
2023/07/29 17:15:49;;;;;;;4.65;4.05;;;22.10;99.90;;;;;;10562691;28;20281;-81
2023/07/29 17:21:11;;;;;;;5.05;3.55;;;21.80;99.90;;;;;;10553087;28;20186;-80
2023/07/29 17:26:32;;;;;;;4.00;3.35;;;21.80;99.90;;;;;;10537665;28;20214;-80
2023/07/29 17:31:53;;;;;;;3.72;2.70;;;21.60;1.00;;;;;;10526122;28;20218;-80
2023/07/29 17:37:14;;;;;;;4.55;2.95;;;21.30;99.90;;;;;;10539865;28;20222;-81
2023/07/29 17:42:36;;;;;;;5.30;2.90;;;21.10;99.90;;;;;;10526373;28;20504;-81
2023/07/29 17:47:58;;;;;;;5.63;3.10;;;21.00;99.90;;;;;;10551300;28;20401;-80
2023/07/29 17:53:19;;;;;;;6.30;3.40;;;20.80;99.90;;;;;;10560232;28;20199;-80
2023/07/29 17:58:40;;;;;;;4.18;3.72;;;20.60;1.00;;;;;;10566070;28;20231;-80
2023/07/29 18:04:01;;;;;;;3.83;3.33;;;20.40;1.00;;;;;;10545204;28;20388;-80
2023/07/29 18:09:23;;;;;;;3.85;2.67;;;20.20;99.90;;;;;;10536402;28;20222;-80
2023/07/29 18:14:44;;;;;;;8.40;3.15;;;20.00;1.00;;;;;;10563930;28;20202;-80
2023/07/29 18:20:07;;;;;;;6.75;3.65;;;19.90;99.90;;;;;;10565380;28;20451;-80
2023/07/29 18:25:28;;;;;;;6.57;3.78;;;19.80;1.00;;;;;;10544315;28;20199;-80
2023/07/29 18:30:49;;;;;;;10.52;3.75;;;19.90;1.00;;;;;;10549649;28;20524;-80
2023/07/29 18:36:11;;;;;;;3.75;3.25;;;19.70;1.00;;;;;;10517794;28;20258;-79
2023/07/29 18:41:32;;;;;;;5.38;2.90;;;19.70;20.90;;;;;;10521553;28;20374;-80
2023/07/29 18:46:53;;;;;;;3.83;2.53;;;19.70;11.50;;;;;;10531389;28;20206;-79
2023/07/29 18:52:15;;;;;;;4.95;2.80;;;19.40;1.00;;;;;;10549523;28;20209;-79
2023/07/29 18:57:36;;;;;;;7.55;3.10;;;19.40;45.70;;;;;;10530940;28;20234;-80
2023/07/29 19:02:57;;;;;;;7.82;4.07;;;19.40;48.80;;;;;;10549239;28;20194;-79
2023/07/29 19:08:19;;;;;;;6.57;3.63;;;19.40;80.20;;;;;;10562833;28;20528;-81
2023/07/29 19:13:40;;;;;;;3.10;2.55;;;19.20;38.20;;;;;;10561630;28;20232;-80
2023/07/29 19:19:01;;;;;;;5.55;3.90;;;19.20;22.70;;;;;;10549805;28;20198;-80
2023/07/29 19:24:24;;;;;;;6.00;3.13;;;19.20;4.80;;;;;;10547745;28;20505;-79
2023/07/29 19:29:45;;;;;;;4.32;2.55;;;19.10;1.00;;;;;;10517962;28;20277;-80
2023/07/29 19:35:07;;;;;;;2.75;2.15;;;19.10;1.00;;;;;;10520968;28;20237;-80
2023/07/29 19:40:31;;;;;;;3.30;2.10;;;19.00;1.00;;;;;;10532321;28;20204;-80
2023/07/29 19:45:54;;;;;;;3.08;1.90;;;18.90;1.00;;;;;;10562070;28;20195;-80
2023/07/29 19:51:35;;;;;;;2.22;1.80;;;19.00;3.30;;;;;;10547113;28;20225;-81
2023/07/29 19:56:57;;;;;;;3.63;2.28;;;19.00;1.00;;;;;;10556317;28;20197;-80
2023/07/29 20:02:19;;;;;;;3.33;2.10;;;19.10;1.00;;;;;;10547411;28;20227;-81
2023/07/29 20:07:40;;;;;;;3.42;2.28;;;19.00;7.60;;;;;;10557504;28;20206;-80
2023/07/29 20:13:01;;;;;;;3.65;2.30;;;18.90;1.00;;;;;;10503899;28;20214;-80
2023/07/29 20:18:22;;;;;;;6.97;3.13;;;18.90;1.00;;;;;;10542085;28;20278;-80
2023/07/29 20:23:44;;;;;;;4.13;2.22;;;19.00;22.90;;;;;;10554301;28;20229;-80
2023/07/29 20:29:05;;;;;;;3.25;1.90;;;18.90;1.00;;;;;;10559505;28;20263;-80
2023/07/29 20:34:26;;;;;;;2.22;2.03;;;18.90;1.00;;;;;;10554873;28;20285;-79
2023/07/29 20:39:48;;;;;;;3.35;2.33;;;18.90;1.00;;;;;;10557592;28;20347;-80
2023/07/29 20:45:10;;;;;;;4.13;2.13;;;18.90;1.00;;;;;;10544806;28;20557;-80
2023/07/29 20:50:32;;;;;;;3.60;1.98;;;18.90;1.00;;;;;;10544428;28;20222;-80
2023/07/29 20:55:53;;;;;;;2.17;2.03;;;18.60;1.00;;;;;;10556141;28;20383;-79
2023/07/29 21:01:14;;;;;;;2.03;1.75;;;18.60;9.10;;;;;;10559040;28;20202;-80
2023/07/29 21:06:38;;;;;;;2.20;1.65;;;18.60;1.00;;;;;;10557239;28;20202;-80
2023/07/29 21:11:59;;;;;;;1.90;1.63;;;18.60;1.00;;;;;;10545181;28;20239;-79
2023/07/29 21:17:21;;;;;;;2.03;1.60;;;18.60;1.00;;;;;;10560122;28;20434;-80
2023/07/29 21:22:43;;;;;;;2.38;1.70;;;18.50;1.00;;;;;;10532215;28;20219;-81
2023/07/29 21:28:04;;;;;;;2.55;1.67;;;18.40;1.00;;;;;;10517732;28;20433;-81
2023/07/29 21:33:27;;;;;;;1.48;1.38;;;18.50;1.00;;;;;;10516738;28;20225;-80
2023/07/29 21:38:48;;;;;;;2.22;1.70;;;18.40;1.00;;;;;;10526443;28;20213;-80
2023/07/29 21:44:10;;;;;;;1.98;1.70;;;18.40;1.00;;;;;;10528995;28;20217;-80
2023/07/29 21:49:31;;;;;;;1.40;1.30;;;18.30;1.00;;;;;;10534044;28;20226;-80
2023/07/29 21:54:52;;;;;;;2.55;1.77;;;18.30;1.00;;;;;;10512052;28;20186;-80
2023/07/29 22:00:15;;;;;;;1.95;1.50;;;18.30;1.00;;;;;;10562438;28;20198;-81
2023/07/29 22:05:40;;;;;;;1.77;1.65;;;18.30;1.00;;;;;;10526290;28;20207;-79
2023/07/29 22:11:11;;;;;;;2.53;1.40;;;18.30;1.00;;;;;;10564944;28;20241;-79
2023/07/29 22:16:32;;;;;;;2.92;1.48;;;18.30;1.00;;;;;;10550776;28;20187;-80
2023/07/29 22:21:53;;;;;;;2.15;1.60;;;18.20;1.00;;;;;;10563629;28;20237;-80
2023/07/29 22:27:15;;;;;;;3.20;1.38;;;18.20;1.00;;;;;;10535968;28;20277;-79
2023/07/29 22:32:36;;;;;;;3.85;1.92;;;18.20;1.00;;;;;;10548132;28;20262;-80
2023/07/29 22:37:58;;;;;;;2.42;1.30;;;18.10;1.00;;;;;;10549158;28;20227;-80
2023/07/29 22:43:20;;;;;;;3.03;1.45;;;18.10;1.00;;;;;;10549535;28;20187;-80
2023/07/29 22:48:41;;;;;;;1.67;1.58;;;18.10;1.00;;;;;;10558310;28;20222;-80
2023/07/29 22:54:03;;;;;;;1.80;1.70;;;18.10;1.00;;;;;;10549571;28;20250;-81
2023/07/29 22:59:24;;;;;;;4.18;1.70;;;18.10;1.00;;;;;;10545437;28;20194;-80
2023/07/29 23:04:45;;;;;;;2.25;2.05;;;18.10;1.00;;;;;;10520850;28;20210;-80
2023/07/29 23:10:07;;;;;;;2.47;1.67;;;18.10;1.00;;;;;;10520634;28;20214;-79
2023/07/29 23:15:33;;;;;;;3.33;1.85;;;18.10;1.00;;;;;;10496547;28;20202;-80
2023/07/29 23:20:55;;;;;;;3.80;1.92;;;18.10;1.00;;;;;;10520349;28;20509;-80
2023/07/29 23:26:16;;;;;;;1.60;1.50;;;18.10;1.00;;;;;;10520058;28;20802;-79
2023/07/29 23:31:37;;;;;;;3.67;2.30;;;18.10;1.00;;;;;;10513102;28;20226;-79
2023/07/29 23:36:59;;;;;;;2.80;2.00;;;18.10;1.00;;;;;;10545933;28;20237;-79
2023/07/29 23:42:20;;;;;;;4.75;1.98;;;18.10;1.00;;;;;;10519198;28;20270;-81
2023/07/29 23:47:42;;;;;;;2.92;2.20;;;18.10;1.00;;;;;;10551798;28;20198;-79
2023/07/29 23:53:03;;;;;;;3.08;2.58;;;18.20;1.00;;;;;;10532408;28;20229;-79
2023/07/29 23:58:24;;;;;;;3.78;2.85;;;18.10;1.00;;;;;;10559745;28;20201;-81
